createdAt,value
2017-07-23T00:02:24.830Z,21.10
2017-07-23T00:04:51.812Z,21.10
2017-07-23T00:07:18.782Z,21.10
2017-07-23T00:09:45.596Z,21.10
2017-07-23T00:12:12.519Z,21.10
2017-07-23T00:14:39.374Z,21.00
2017-07-23T00:17:06.252Z,21.00
2017-07-23T00:19:33.119Z,21.00
2017-07-23T00:22:00.013Z,20.80
2017-07-23T00:24:26.823Z,20.80
2017-07-23T00:26:53.682Z,20.80
2017-07-23T00:29:20.588Z,20.70
2017-07-23T00:31:48.240Z,20.70
2017-07-23T00:34:15.075Z,20.70
2017-07-23T00:36:41.899Z,20.60
2017-07-23T00:39:08.796Z,20.60
2017-07-23T00:41:36.351Z,20.60
2017-07-23T00:44:03.988Z,20.60
2017-07-23T00:46:30.829Z,20.60
2017-07-23T00:48:57.655Z,20.60
2017-07-23T00:51:24.637Z,20.60
2017-07-23T00:53:52.348Z,20.60
2017-07-23T00:56:19.174Z,20.50
2017-07-23T00:58:45.975Z,20.50
2017-07-23T01:01:12.892Z,20.60
2017-07-23T01:03:39.703Z,20.60
2017-07-23T01:06:06.583Z,20.60
2017-07-23T01:08:33.416Z,20.60
2017-07-23T01:11:00.239Z,20.60
2017-07-23T01:13:27.120Z,20.50
2017-07-23T01:15:53.946Z,20.50
2017-07-23T01:18:20.840Z,20.50
2017-07-23T01:20:47.656Z,20.50
2017-07-23T01:23:14.526Z,20.50
2017-07-23T01:25:41.399Z,20.50
2017-07-23T01:28:08.228Z,20.60
2017-07-23T01:30:35.885Z,20.60
2017-07-23T01:33:03.439Z,20.60
2017-07-23T01:35:31.016Z,20.60
2017-07-23T01:37:58.661Z,20.60
2017-07-23T01:40:25.564Z,20.60
2017-07-23T01:42:52.448Z,20.60
2017-07-23T01:45:19.323Z,20.50
2017-07-23T01:47:46.139Z,20.60
2017-07-23T01:50:13.045Z,20.50
2017-07-23T01:52:39.924Z,20.50
2017-07-23T01:55:06.771Z,20.50
2017-07-23T01:57:33.735Z,20.50
2017-07-23T02:00:01.296Z,20.50
2017-07-23T02:02:28.143Z,20.50
2017-07-23T02:04:55.830Z,20.50
2017-07-23T02:07:22.645Z,20.50
2017-07-23T02:09:50.206Z,20.40
2017-07-23T02:12:17.851Z,20.40
2017-07-23T02:14:44.688Z,20.40
2017-07-23T02:17:11.503Z,20.30
2017-07-23T02:19:38.388Z,20.30
2017-07-23T02:22:06.184Z,20.20
2017-07-23T02:24:33.067Z,20.20
2017-07-23T02:26:59.896Z,20.20
2017-07-23T02:29:26.711Z,20.20
2017-07-23T02:31:53.592Z,20.20
2017-07-23T02:34:20.418Z,20.10
2017-07-23T02:36:47.316Z,20.10
2017-07-23T02:39:14.883Z,20.10
2017-07-23T02:41:42.443Z,20.10
2017-07-23T02:44:10.120Z,20.10
2017-07-23T02:46:37.741Z,20.10
2017-07-23T02:49:04.587Z,20.10
2017-07-23T02:51:31.491Z,20.20
2017-07-23T02:53:58.308Z,20.10
2017-07-23T02:56:25.950Z,20.10
2017-07-23T02:58:52.771Z,20.10
2017-07-23T03:01:19.579Z,20.10
2017-07-23T03:03:46.465Z,20.10
2017-07-23T03:06:13.284Z,20.10
2017-07-23T03:08:40.187Z,20.20
2017-07-23T03:11:07.729Z,20.20
2017-07-23T03:13:34.555Z,20.10
2017-07-23T03:16:01.447Z,20.20
2017-07-23T03:18:28.266Z,20.20
2017-07-23T03:20:55.832Z,20.20
2017-07-23T03:23:23.484Z,20.20
2017-07-23T03:25:50.311Z,20.20
2017-07-23T03:28:17.128Z,20.20
2017-07-23T03:30:44.013Z,20.20
2017-07-23T03:33:10.842Z,20.20
2017-07-23T03:35:38.011Z,20.20
2017-07-23T03:38:04.840Z,20.20
2017-07-23T03:40:31.674Z,20.10
2017-07-23T03:42:58.591Z,20.10
2017-07-23T03:45:25.426Z,20.00
2017-07-23T03:47:52.313Z,20.00
2017-07-23T03:50:19.247Z,20.00
2017-07-23T03:52:46.080Z,20.00
2017-07-23T03:55:12.894Z,20.00
2017-07-23T03:57:39.792Z,20.10
2017-07-23T04:00:06.712Z,20.00
2017-07-23T04:02:33.527Z,20.00
2017-07-23T04:05:01.094Z,19.90
2017-07-23T04:07:27.998Z,19.90
2017-07-23T04:09:54.817Z,19.90
2017-07-23T04:12:21.645Z,19.80
2017-07-23T04:14:48.556Z,19.70
2017-07-23T04:17:16.119Z,19.70
2017-07-23T04:19:42.950Z,19.70
2017-07-23T04:22:10.567Z,19.60
2017-07-23T04:24:37.449Z,19.60
2017-07-23T04:27:17.400Z,19.50
2017-07-23T04:29:45.968Z,19.50
2017-07-23T04:32:12.791Z,19.50
2017-07-23T04:34:39.682Z,19.50
2017-07-23T04:37:07.255Z,19.60
2017-07-23T04:39:34.815Z,19.70
2017-07-23T04:42:01.723Z,19.70
2017-07-23T04:44:28.548Z,19.90
2017-07-23T04:46:55.526Z,20.00
2017-07-23T04:49:22.348Z,20.70
2017-07-23T04:51:49.167Z,22.30
2017-07-23T04:54:16.049Z,25.20
2017-07-23T04:56:42.944Z,26.30
2017-07-23T04:59:09.759Z,27.90
2017-07-23T05:01:37.351Z,30.10
2017-07-23T05:04:04.236Z,30.00
2017-07-23T05:06:31.075Z,29.10
2017-07-23T05:08:57.964Z,30.70
2017-07-23T05:11:25.528Z,32.00
2017-07-23T05:13:53.243Z,32.20
2017-07-23T05:16:20.068Z,32.10
2017-07-23T05:18:46.879Z,31.80
2017-07-23T05:21:13.813Z,31.50
2017-07-23T05:23:41.365Z,29.00
2017-07-23T05:26:08.204Z,29.00
2017-07-23T05:28:35.091Z,29.10
2017-07-23T05:31:01.973Z,27.20
2017-07-23T05:33:28.908Z,26.00
2017-07-23T05:35:55.735Z,26.70
2017-07-23T05:38:22.577Z,27.50
2017-07-23T05:40:49.461Z,25.70
2017-07-23T05:43:16.312Z,25.00
2017-07-23T05:45:43.140Z,24.60
2017-07-23T05:48:10.091Z,24.20
2017-07-23T05:50:36.917Z,23.90
2017-07-23T05:53:03.817Z,23.70
2017-07-23T05:55:31.466Z,23.60
2017-07-23T05:57:59.064Z,23.80
2017-07-23T06:00:25.947Z,23.70
2017-07-23T06:02:52.847Z,24.50
2017-07-23T06:05:19.752Z,24.10
2017-07-23T06:07:46.592Z,24.20
2017-07-23T06:10:14.492Z,24.10
2017-07-23T06:12:42.151Z,23.80
2017-07-23T06:15:09.723Z,23.60
2017-07-23T06:17:36.564Z,23.60
2017-07-23T06:20:03.474Z,23.10
2017-07-23T06:22:30.308Z,23.00
2017-07-23T06:24:57.148Z,22.80
2017-07-23T06:27:24.063Z,22.60
2017-07-23T06:29:50.915Z,22.80
2017-07-23T06:32:17.747Z,22.70
2017-07-23T06:34:44.638Z,22.70
2017-07-23T06:37:11.463Z,22.60
2017-07-23T06:39:38.412Z,22.50
2017-07-23T06:42:05.225Z,22.50
2017-07-23T06:44:32.155Z,22.60
2017-07-23T06:46:59.132Z,22.50
2017-07-23T06:49:26.144Z,22.70
2017-07-23T06:51:53.696Z,23.20
2017-07-23T06:54:21.340Z,23.40
2017-07-23T06:56:48.162Z,23.40
2017-07-23T06:59:15.096Z,23.40
2017-07-23T07:01:41.939Z,23.40
2017-07-23T07:04:08.771Z,23.50
2017-07-23T07:06:35.673Z,23.50
2017-07-23T07:09:02.527Z,23.50
2017-07-23T07:11:30.077Z,23.60
2017-07-23T07:13:57.720Z,23.90
2017-07-23T07:16:24.602Z,23.90
2017-07-23T07:18:51.500Z,24.10
2017-07-23T07:21:18.405Z,24.10
2017-07-23T07:23:45.312Z,24.20
2017-07-23T07:26:12.128Z,24.10
2017-07-23T07:28:41.415Z,24.00
2017-07-23T07:31:09.204Z,23.80
2017-07-23T07:33:37.871Z,23.70
2017-07-23T07:36:07.898Z,23.50
2017-07-23T07:38:34.727Z,23.50
2017-07-23T07:41:01.604Z,23.50
2017-07-23T08:00:48.415Z,23.80
2017-07-23T08:03:17.491Z,23.60
2017-07-23T08:05:44.305Z,23.70
2017-07-23T08:08:13.789Z,23.60
2017-07-23T08:10:41.189Z,23.60
2017-07-23T08:13:09.620Z,23.50
2017-07-23T08:15:41.488Z,23.30
2017-07-23T08:18:11.007Z,22.70
2017-07-23T08:20:37.925Z,22.70
2017-07-23T08:23:12.449Z,22.60
2017-07-23T08:25:42.424Z,22.60
2017-07-23T08:28:10.123Z,22.40
2017-07-23T08:30:37.068Z,22.20
2017-07-23T08:33:20.280Z,22.10
2017-07-23T08:38:35.349Z,21.60
2017-07-23T08:41:02.670Z,21.50
2017-07-23T08:43:29.949Z,21.40
2017-07-23T08:45:56.856Z,21.40
2017-07-23T08:48:24.728Z,21.80
2017-07-23T08:50:52.472Z,22.40
2017-07-23T08:53:19.455Z,23.00
2017-07-23T08:55:46.475Z,23.70
2017-07-23T08:58:16.598Z,24.50
2017-07-23T09:00:43.881Z,25.00
2017-07-23T09:03:11.533Z,25.50
2017-07-23T09:05:38.444Z,25.50
2017-07-23T09:08:05.326Z,26.30
2017-07-23T09:10:32.900Z,25.60
2017-07-23T09:13:00.573Z,24.90
2017-07-23T09:15:27.508Z,24.90
2017-07-23T09:17:55.102Z,24.30
2017-07-23T09:20:22.028Z,24.30
2017-07-23T09:22:50.582Z,23.60
2017-07-23T09:25:25.209Z,23.60
2017-07-23T09:27:52.444Z,23.60
2017-07-23T09:30:19.288Z,25.00
2017-07-23T09:32:46.187Z,25.50
2017-07-23T09:35:13.007Z,25.70
2017-07-23T09:37:40.580Z,26.20
2017-07-23T09:40:08.239Z,25.80
2017-07-23T09:42:35.804Z,25.50
2017-07-23T09:45:03.429Z,25.20
2017-07-23T09:47:30.269Z,25.20
2017-07-23T09:49:57.168Z,24.90
2017-07-23T09:52:24.059Z,25.10
2017-07-23T09:54:55.422Z,25.40
2017-07-23T09:57:26.032Z,26.00
2017-07-23T09:59:54.511Z,25.90
2017-07-23T10:02:29.417Z,25.40
2017-07-23T10:05:04.197Z,24.90
2017-07-23T10:07:33.994Z,24.60
2017-07-23T10:10:04.082Z,24.60
2017-07-23T10:12:34.988Z,24.60
2017-07-23T10:15:01.890Z,24.80
2017-07-23T10:17:38.128Z,24.80
2017-07-23T10:20:05.079Z,24.80
2017-07-23T10:22:32.424Z,24.50
2017-07-23T10:24:59.838Z,24.50
2017-07-23T10:27:26.823Z,24.40
2017-07-23T10:29:54.119Z,24.60
2017-07-23T10:32:32.802Z,25.00
2017-07-23T10:35:09.971Z,25.00
2017-07-23T10:37:45.696Z,24.60
2017-07-23T10:40:16.640Z,25.00
2017-07-23T10:42:47.862Z,24.90
2017-07-23T10:45:18.050Z,25.60
2017-07-23T10:47:49.893Z,25.60
2017-07-23T10:50:27.446Z,26.00
2017-07-23T11:10:18.555Z,26.00
2017-07-23T11:12:45.792Z,26.10
2017-07-23T11:15:12.679Z,26.40
2017-07-23T11:17:39.508Z,26.50
2017-07-23T11:20:15.608Z,26.40
2017-07-23T11:22:43.104Z,26.00
2017-07-23T11:25:10.005Z,25.70
2017-07-23T11:27:37.788Z,25.50
2017-07-23T11:30:04.796Z,24.80
2017-07-23T11:49:52.425Z,24.30
2017-07-23T11:52:19.845Z,24.70
2017-07-23T11:54:56.099Z,24.70
2017-07-23T11:57:24.092Z,25.10
2017-07-23T11:59:50.933Z,25.40
2017-07-23T12:02:21.165Z,25.20
2017-07-23T12:05:00.439Z,25.60
2017-07-23T12:07:32.740Z,25.50
2017-07-23T12:10:07.831Z,25.00
2017-07-23T12:12:36.289Z,24.70
2017-07-23T12:15:09.374Z,24.20
2017-07-23T12:17:37.507Z,24.10
2017-07-23T12:20:12.372Z,24.10
2017-07-23T12:22:44.537Z,24.20
2017-07-23T12:25:21.818Z,24.40
2017-07-23T12:27:49.732Z,24.40
2017-07-23T12:30:18.082Z,24.90
2017-07-23T12:32:49.728Z,25.00
2017-07-23T12:35:17.568Z,25.40
2017-07-23T12:37:47.229Z,25.30
2017-07-23T12:40:25.650Z,25.40
2017-07-23T12:42:52.835Z,25.30
2017-07-23T12:45:19.999Z,25.30
2017-07-23T12:47:49.852Z,25.20
2017-07-23T12:50:17.053Z,25.20
2017-07-23T12:52:57.155Z,25.20
2017-07-23T12:55:33.380Z,25.10
2017-07-23T12:58:05.915Z,25.30
2017-07-23T13:00:39.335Z,25.30
2017-07-23T13:03:11.697Z,25.40
2017-07-23T13:05:44.596Z,25.40
2017-07-23T13:08:17.253Z,25.40
2017-07-23T13:10:44.681Z,25.30
2017-07-23T13:13:16.960Z,25.50
2017-07-23T13:15:44.179Z,25.30
2017-07-23T13:18:18.986Z,25.40
2017-07-23T13:20:46.517Z,25.40
2017-07-23T13:23:20.233Z,25.50
2017-07-23T13:26:02.804Z,25.50
2017-07-23T13:28:45.558Z,25.60
2017-07-23T13:31:20.400Z,25.40
2017-07-23T13:33:55.966Z,25.40
2017-07-23T13:36:37.476Z,25.50
2017-07-23T13:39:13.203Z,25.50
2017-07-23T13:44:39.415Z,25.70
2017-07-23T13:47:20.051Z,25.60
2017-07-23T13:49:59.456Z,25.80
2017-07-23T13:55:21.437Z,25.50
2017-07-23T13:58:04.113Z,25.60
2017-07-23T14:00:37.382Z,25.70
2017-07-23T14:03:04.540Z,25.90
2017-07-23T14:05:45.721Z,25.90
2017-07-23T14:13:54.110Z,25.70
2017-07-23T14:16:35.849Z,25.70
2017-07-23T14:19:10.997Z,25.70
2017-07-23T14:21:46.221Z,25.70
2017-07-23T14:24:21.450Z,25.60
2017-07-23T14:26:56.293Z,25.50
2017-07-23T14:29:31.625Z,25.50
2017-07-23T14:31:59.727Z,25.20
2017-07-23T14:34:27.385Z,25.20
2017-07-23T14:36:54.949Z,25.10
2017-07-23T14:39:22.591Z,25.30
2017-07-23T14:41:49.511Z,25.20
2017-07-23T14:44:16.337Z,25.00
2017-07-23T14:46:43.160Z,25.00
2017-07-23T14:49:10.041Z,25.00
2017-07-23T14:51:36.919Z,24.80
2017-07-23T14:54:03.820Z,25.00
2017-07-23T14:56:30.668Z,24.90
2017-07-23T14:58:57.586Z,25.00
2017-07-23T15:01:24.416Z,25.20
2017-07-23T15:03:51.261Z,25.40
2017-07-23T15:06:18.907Z,25.60
2017-07-23T15:08:46.228Z,25.60
2017-07-23T15:11:13.242Z,25.40
2017-07-23T15:13:40.100Z,25.10
2017-07-23T15:16:09.692Z,24.80
2017-07-23T15:18:41.725Z,24.90
2017-07-23T15:21:10.847Z,24.80
2017-07-23T15:23:38.924Z,24.70
2017-07-23T15:26:08.540Z,24.50
2017-07-23T15:28:35.459Z,24.40
2017-07-23T15:31:05.523Z,24.30
2017-07-23T15:33:39.269Z,24.20
2017-07-23T15:36:07.189Z,24.10
2017-07-23T15:38:34.057Z,24.10
2017-07-23T15:41:00.974Z,24.10
2017-07-23T15:43:27.794Z,24.20
2017-07-23T15:45:55.359Z,24.00
2017-07-23T15:48:23.071Z,24.10
2017-07-23T15:50:49.887Z,24.10
2017-07-23T15:53:16.767Z,24.10
2017-07-23T15:55:43.668Z,23.90
2017-07-23T15:58:10.559Z,24.00
2017-07-23T16:00:37.421Z,24.10
2017-07-23T16:03:04.268Z,24.10
2017-07-23T16:05:31.148Z,24.00
2017-07-23T16:07:58.035Z,24.00
2017-07-23T16:10:24.985Z,23.90
2017-07-23T16:12:51.823Z,23.90
2017-07-23T16:15:18.644Z,24.00
2017-07-23T16:17:45.528Z,23.90
2017-07-23T16:20:12.428Z,23.90
2017-07-23T16:22:39.341Z,24.00
2017-07-23T16:25:06.930Z,24.40
2017-07-23T16:27:33.751Z,24.30
2017-07-23T16:30:01.393Z,24.60
2017-07-23T16:32:28.242Z,24.60
2017-07-23T16:34:55.830Z,24.60
2017-07-23T16:37:22.758Z,24.60
2017-07-23T16:39:50.383Z,24.40
2017-07-23T16:42:17.369Z,24.40
2017-07-23T16:44:46.909Z,24.50
2017-07-23T16:47:13.829Z,24.50
2017-07-23T16:49:40.748Z,24.50
2017-07-23T16:52:07.598Z,24.50
2017-07-23T16:54:51.968Z,24.50
2017-07-23T16:57:30.284Z,24.40
2017-07-23T17:00:01.765Z,24.40
2017-07-23T17:02:40.674Z,24.40
2017-07-23T17:05:11.969Z,24.60
2017-07-23T17:07:41.577Z,24.60
2017-07-23T17:10:18.408Z,24.60
2017-07-23T17:12:49.065Z,24.60
2017-07-23T17:15:16.571Z,24.40
2017-07-23T17:17:43.506Z,24.20
2017-07-23T17:20:10.339Z,24.20
2017-07-23T17:22:37.690Z,24.20
2017-07-23T17:25:08.042Z,24.40
2017-07-23T17:27:39.216Z,24.60
2017-07-23T17:30:06.068Z,24.60
2017-07-23T17:32:33.177Z,24.70
2017-07-23T17:35:00.092Z,24.60
2017-07-23T17:37:26.928Z,24.60
2017-07-23T17:39:54.516Z,24.20
2017-07-23T17:42:21.432Z,24.20
2017-07-23T17:44:48.275Z,24.10
2017-07-23T17:47:15.125Z,24.00
2017-07-23T17:49:42.036Z,23.90
2017-07-23T17:52:08.958Z,23.90
2017-07-23T17:54:36.060Z,23.90
2017-07-23T17:57:02.879Z,23.80
2017-07-23T17:59:29.696Z,23.70
2017-07-23T18:01:57.332Z,23.20
2017-07-23T18:04:24.243Z,23.20
2017-07-23T18:06:51.085Z,23.20
2017-07-23T18:09:17.936Z,23.20
2017-07-23T18:11:44.831Z,23.20
2017-07-23T18:14:11.639Z,23.10
2017-07-23T18:16:38.556Z,23.10
2017-07-23T18:19:05.393Z,23.10
2017-07-23T18:21:32.223Z,23.00
2017-07-23T18:23:59.857Z,22.90
2017-07-23T18:26:26.761Z,22.90
2017-07-23T18:28:54.111Z,22.80
2017-07-23T18:31:21.099Z,22.70
2017-07-23T18:33:47.912Z,22.60
2017-07-23T18:36:14.748Z,22.50
2017-07-23T18:38:41.675Z,22.50
2017-07-23T18:41:08.624Z,22.30
2017-07-23T18:43:35.635Z,22.20
2017-07-23T18:46:02.490Z,22.10
2017-07-23T18:48:30.128Z,22.00
2017-07-23T18:50:56.961Z,21.90
2017-07-23T18:53:23.856Z,21.80
2017-07-23T18:55:51.497Z,21.50
2017-07-23T18:58:18.339Z,21.50
2017-07-23T19:00:45.348Z,21.40
2017-07-23T19:03:12.701Z,21.30
2017-07-23T19:05:39.520Z,21.10
2017-07-23T19:08:06.433Z,21.00
2017-07-23T19:10:33.269Z,21.00
2017-07-23T19:13:00.180Z,20.90
2017-07-23T19:15:27.103Z,20.90
2017-07-23T19:17:53.906Z,20.90
2017-07-23T19:20:20.725Z,20.90
2017-07-23T19:22:47.648Z,20.80
2017-07-23T19:25:14.478Z,20.80
2017-07-23T19:27:41.302Z,20.60
2017-07-23T19:30:08.947Z,20.50
2017-07-23T19:32:35.773Z,20.50
2017-07-23T19:35:02.713Z,20.50
2017-07-23T19:37:30.859Z,20.30
2017-07-23T19:39:57.697Z,20.30
2017-07-23T19:42:24.623Z,20.30
2017-07-23T19:44:52.196Z,20.20
2017-07-23T19:47:19.014Z,20.10
2017-07-23T19:49:46.667Z,20.10
2017-07-23T19:52:13.655Z,20.10
2017-07-23T19:54:40.485Z,20.10
2017-07-23T19:57:08.089Z,19.90
2017-07-23T19:59:35.022Z,19.90
2017-07-23T20:02:01.866Z,19.80
2017-07-23T20:04:28.733Z,19.70
2017-07-23T20:06:55.627Z,19.70
2017-07-23T20:09:23.285Z,19.60
2017-07-23T20:11:50.869Z,19.60
2017-07-23T20:14:17.848Z,19.60
2017-07-23T20:16:44.701Z,19.70
2017-07-23T20:19:11.541Z,19.70
2017-07-23T20:21:38.512Z,19.70
2017-07-23T20:24:05.430Z,19.70
2017-07-23T20:26:32.367Z,19.70
2017-07-23T20:28:59.204Z,19.70
2017-07-23T20:31:35.415Z,19.60
2017-07-23T20:34:11.342Z,19.60
2017-07-23T20:36:46.912Z,19.50
2017-07-23T20:39:15.088Z,19.50
2017-07-23T20:41:42.952Z,19.50
2017-07-23T20:44:24.335Z,19.50
2017-07-23T20:46:59.864Z,19.50
2017-07-23T20:49:31.112Z,19.50
2017-07-23T20:51:58.055Z,19.50
2017-07-23T20:54:24.930Z,19.40
2017-07-23T20:56:51.769Z,19.40
2017-07-23T20:59:18.694Z,19.50
2017-07-23T21:01:45.526Z,19.40
2017-07-23T21:04:12.412Z,19.40
2017-07-23T21:06:40.981Z,19.40
2017-07-23T21:09:07.802Z,19.40
2017-07-23T21:11:34.634Z,19.40
2017-07-23T21:14:01.529Z,19.50
2017-07-23T21:16:28.382Z,19.60
2017-07-23T21:18:55.212Z,19.60
2017-07-23T21:21:22.154Z,19.60
2017-07-23T21:23:49.009Z,19.70
2017-07-23T21:26:16.660Z,19.80
2017-07-23T21:28:43.540Z,19.80
2017-07-23T21:31:10.363Z,19.80
2017-07-23T21:33:37.989Z,19.80
2017-07-23T21:36:04.800Z,19.70
2017-07-23T21:41:31.184Z,19.80
2017-07-23T21:44:12.005Z,19.80
2017-07-23T21:46:39.684Z,19.80
2017-07-23T21:49:07.715Z,19.70
2017-07-23T21:51:38.504Z,19.70
2017-07-23T21:54:07.675Z,19.70
2017-07-23T21:56:37.049Z,19.70
2017-07-23T21:59:10.999Z,19.60
2017-07-23T22:01:37.942Z,19.60
2017-07-23T22:04:04.884Z,19.60
2017-07-23T22:06:40.948Z,19.50
2017-07-23T22:09:08.216Z,19.50
2017-07-23T22:11:35.085Z,19.50
2017-07-23T22:14:02.892Z,19.50
2017-07-23T22:16:30.592Z,19.50
2017-07-23T22:19:04.877Z,19.40
2017-07-23T22:21:44.183Z,19.50
2017-07-23T22:24:12.013Z,19.40
2017-07-23T22:26:38.971Z,19.40
2017-07-23T22:29:05.820Z,19.40
2017-07-23T22:31:33.207Z,19.40
2017-07-23T22:34:00.104Z,19.40
2017-07-23T22:36:39.021Z,19.30
2017-07-23T22:39:10.052Z,19.30
2017-07-23T22:41:36.894Z,19.30
2017-07-23T22:44:04.170Z,19.20
2017-07-23T22:46:39.068Z,19.20
2017-07-23T22:49:18.425Z,19.20
2017-07-23T22:51:55.394Z,19.10
2017-07-23T22:54:23.040Z,19.20
2017-07-23T22:56:49.864Z,19.20
2017-07-23T22:59:17.542Z,19.20
2017-07-23T23:01:46.356Z,19.20
2017-07-23T23:04:14.361Z,19.10
2017-07-23T23:06:41.323Z,19.10
2017-07-23T23:09:08.220Z,19.10
2017-07-23T23:11:35.923Z,19.10
2017-07-23T23:14:03.954Z,19.00
2017-07-23T23:16:31.636Z,19.00
2017-07-23T23:18:58.548Z,19.00
2017-07-23T23:21:26.111Z,19.00
2017-07-23T23:23:52.944Z,19.00
2017-07-23T23:26:19.841Z,19.10
2017-07-23T23:28:46.681Z,19.00
2017-07-23T23:31:13.596Z,19.00
2017-07-23T23:33:40.412Z,19.00
2017-07-23T23:36:07.239Z,19.00
2017-07-23T23:38:34.152Z,18.90
2017-07-23T23:41:00.988Z,18.90
2017-07-23T23:43:27.831Z,18.90
2017-07-23T23:45:54.784Z,18.90
2017-07-23T23:48:21.620Z,19.00
2017-07-23T23:50:48.436Z,19.00
2017-07-23T23:53:15.329Z,19.00
2017-07-23T23:55:42.218Z,19.00
2017-07-23T23:58:09.100Z,19.10
